Time;durP1;ratioP1;P1;durP2;ratioP2;P2;SDS_P1;SDS_P2;PMS_P1;PMS_P2;Temp;Humidity;BMP_temperature;BMP_pressure;BME280_temperature;BME280_humidity;BME280_pressure;Samples;Min_cycle;Max_cycle;Signal;HPM_P1;HPM_P2
2021/12/17 00:00:40;;;;;;;12.28;5.33;;;;;;;11.39;61.81;101226.14;2452993;80;25793;-78
2021/12/17 00:04:04;;;;;;;8.25;4.62;;;;;;;11.37;61.78;101220.86;2455381;79;25644;-77
2021/12/17 00:07:26;;;;;;;9.08;4.53;;;;;;;11.35;61.75;101231.27;2454973;80;25668;-79
2021/12/17 00:10:49;;;;;;;9.88;5.25;;;;;;;11.33;61.72;101218.98;2456307;80;25776;-78
2021/12/17 00:14:13;;;;;;;9.00;4.30;;;;;;;11.30;61.67;101211.92;2456535;80;25657;-78
2021/12/17 00:17:37;;;;;;;7.53;4.22;;;;;;;11.28;61.66;101210.13;2456459;80;25855;-78
2021/12/17 00:50:22;;;;;;;11.12;4.55;;;;;;;11.07;61.66;101232.05;2423282;81;25685;-77
2021/12/17 00:53:26;;;;;;;10.50;4.42;;;;;;;11.06;61.66;101234.16;2402149;81;25689;-76
2021/12/17 00:56:54;;;;;;;10.70;4.55;;;;;;;11.05;61.67;101231.52;2381630;83;25661;-82
2021/12/17 01:00:21;;;;;;;8.78;3.98;;;;;;;11.05;61.70;101224.98;2381614;81;25661;-78
2021/12/17 01:03:42;;;;;;;10.30;4.70;;;;;;;11.03;61.72;101222.73;2381279;83;25677;-77
2021/12/17 01:07:04;;;;;;;9.68;4.72;;;;;;;11.02;61.73;101215.74;2381262;83;30900;-82
2021/12/17 01:10:31;;;;;;;5.87;3.75;;;;;;;11.02;61.75;101214.44;2381314;82;25660;-79
2021/12/17 01:13:54;;;;;;;9.45;4.42;;;;;;;11.01;61.75;101221.80;2379320;81;25617;-77
2021/12/17 01:17:38;;;;;;;12.73;4.08;;;;;;;10.99;61.76;101214.33;2381478;81;25622;-78
2021/12/17 01:35:33;;;;;;;6.78;4.20;;;;;;;10.96;61.73;101203.78;2253346;85;25599;-80
2021/12/17 01:42:21;;;;;;;9.98;3.87;;;;;;;10.96;61.72;101219.44;2255542;87;25679;-77
2021/12/17 01:45:43;;;;;;;10.60;4.45;;;;;;;10.95;61.71;101223.77;2255486;87;25731;-77
2021/12/17 02:00:05;;;;;;;7.28;3.80;;;;;;;10.93;61.71;101225.42;2159052;87;25769;-80
2021/12/17 02:03:28;;;;;;;7.28;3.47;;;;;;;10.92;61.71;101222.35;2260142;87;25678;-77
2021/12/17 02:06:50;;;;;;;9.78;4.25;;;;;;;10.92;61.71;101213.64;2261729;87;25653;-78
2021/12/17 02:31:41;;;;;;;10.05;4.45;;;;;;;10.87;61.75;101188.28;2244060;87;25743;-77
2021/12/17 02:38:45;;;;;;;10.78;4.22;;;;;;;10.88;61.77;101174.82;2401742;81;25625;-82
2021/12/17 02:45:54;;;;;;;9.10;3.95;;;;;;;10.87;61.75;101177.85;2402149;82;25715;-78
2021/12/17 02:49:16;;;;;;;8.60;4.10;;;;;;;10.87;61.72;101176.55;2401877;82;25684;-83
2021/12/17 02:52:40;;;;;;;12.35;5.30;;;;;;;10.87;61.73;101174.36;2402096;82;25677;-77
2021/12/17 02:56:08;;;;;;;9.13;3.83;;;;;;;10.88;61.71;101180.92;2401951;82;25680;-79
2021/12/17 02:59:31;;;;;;;6.15;3.25;;;;;;;10.86;61.70;101177.36;2401927;82;25677;-78
2021/12/17 03:02:54;;;;;;;10.13;3.67;;;;;;;10.85;61.66;101178.63;2402217;82;25675;-77
2021/12/17 03:06:15;;;;;;;6.92;3.50;;;;;;;10.84;61.69;101183.38;2401604;82;25590;-78
2021/12/17 03:13:19;;;;;;;8.08;3.90;;;;;;;10.84;61.72;101176.86;2401546;81;25920;-78
2021/12/17 03:16:54;;;;;;;8.23;2.92;;;;;;;10.84;61.71;101181.66;2401828;81;25600;-79
2021/12/17 03:23:43;;;;;;;7.17;2.67;;;;;;;10.82;61.71;101165.05;2401894;82;25715;-80
2021/12/17 03:27:06;;;;;;;7.28;3.27;;;;;;;10.83;61.71;101175.98;2400775;82;25579;-78
2021/12/17 03:30:26;;;;;;;6.17;3.57;;;;;;;10.83;61.71;101165.55;2370022;82;29624;-78
2021/12/17 03:33:52;;;;;;;6.20;2.83;;;;;;;10.84;61.72;101159.91;2370603;82;35819;-78
2021/12/17 03:37:14;;;;;;;6.60;3.27;;;;;;;10.83;61.67;101159.41;2397287;82;25672;-77
2021/12/17 03:44:05;;;;;;;5.10;2.87;;;;;;;10.83;61.65;101156.80;2417491;81;25639;-76
2021/12/17 03:47:46;;;;;;;8.03;3.22;;;;;;;10.82;61.68;101156.34;2439326;80;25703;-80
2021/12/17 03:51:19;;;;;;;7.15;3.62;;;;;;;10.81;61.67;101157.19;2461153;79;25644;-78
2021/12/17 03:54:37;;;;;;;7.40;3.02;;;;;;;10.81;61.65;101150.24;2460327;80;25602;-79
2021/12/17 03:58:00;;;;;;;4.55;2.75;;;;;;;10.82;61.66;101152.01;2461891;79;25616;-78
2021/12/17 04:01:35;;;;;;;5.65;2.85;;;;;;;10.81;61.65;101149.36;2461735;80;25553;-78
2021/12/17 04:05:17;;;;;;;5.92;2.95;;;;;;;10.81;61.65;101150.66;2461890;79;25668;-78
2021/12/17 04:08:56;;;;;;;7.62;3.52;;;;;;;10.82;61.65;101149.40;2461406;79;25572;-79
2021/12/17 04:12:54;;;;;;;6.92;2.92;;;;;;;10.80;61.64;101149.78;2460177;80;25151;-78
2021/12/17 04:17:04;;;;;;;5.25;2.87;;;;;;;10.80;61.63;101144.56;2459325;79;25637;-79
2021/12/17 04:21:23;;;;;;;5.97;2.90;;;;;;;10.79;61.58;101134.94;2446661;79;25632;-77
2021/12/17 04:25:11;;;;;;;8.00;3.08;;;;;;;10.79;61.57;101134.06;2455439;79;25609;-78
2021/12/17 04:28:56;;;;;;;5.75;3.30;;;;;;;10.77;61.55;101134.02;2460993;80;25675;-80
2021/12/17 04:36:37;;;;;;;6.35;2.83;;;;;;;10.76;61.56;101140.47;2298952;83;26283;-78
2021/12/17 04:40:23;;;;;;;;;;;;;;;;;;;;;
2021/12/17 04:44:22;;;;;;;10.00;3.58;;;;;;;10.74;61.53;101135.22;2317086;83;25713;-82
2021/12/17 05:04:12;;;;;;;7.28;2.65;;;;;;;10.71;61.50;101152.06;2058811;94;25912;-79
2021/12/17 05:07:53;;;;;;;6.97;2.80;;;;;;;10.70;61.47;101145.08;;;;
2021/12/17 05:27:11;;;;;;;;;;;;;;;;;;;;;
2021/12/17 05:31:56;;;;;;;7.55;3.92;;;;;;;10.66;61.42;101187.50;1845268;105;25800;-79
2021/12/17 05:42:54;;;;;;;;;;;;;;;;;;;;;
2021/12/17 05:51:26;;;;;;;8.13;2.50;;;;;;;10.59;61.34;101164.65;1724840;112;25823;-78
2021/12/17 05:55:27;;;;;;;8.23;2.60;;;;;;;10.57;61.32;101155.48;1730783;111;25946;-82
2021/12/17 05:59:36;;;;;;;5.10;2.55;;;;;;;10.56;61.35;101144.98;1792008;108;25977;-81
2021/12/17 06:03:23;;;;;;;4.20;1.98;;;;;;;10.56;61.36;101141.98;1797687;108;34885;-82
2021/12/17 06:07:17;;;;;;;8.00;2.67;;;;;;;10.55;61.32;101153.64;1831975;105;26565;-83
2021/12/17 06:11:08;;;;;;;10.03;2.67;;;;;;;10.56;61.32;101162.84;1878215;101;25952;-82
2021/12/17 06:14:46;;;;;;;;;;;;;;;;;;;;;
2021/12/17 06:18:38;;;;;;;7.90;2.80;;;;;;;10.56;61.29;101168.45;1973929;99;25814;-78
2021/12/17 06:22:18;;;;;;;6.92;2.47;;;;;;;10.54;61.24;101177.53;1949710;100;25834;-78
2021/12/17 06:26:05;;;;;;;9.85;3.20;;;;;;;10.54;61.26;101172.73;1921945;101;25867;-79
2021/12/17 06:30:08;;;;;;;7.00;2.45;;;;;;;10.54;61.24;101172.73;1950001;100;26007;-78
2021/12/17 06:33:35;;;;;;;5.53;2.65;;;;;;;10.53;61.26;101178.76;1921988;101;25899;-80
2021/12/17 06:37:15;;;;;;;;;;;;;;;;;;;;;
2021/12/17 06:40:59;;;;;;;;;;;;;;;;;;;;;
2021/12/17 06:44:30;;;;;;;4.97;1.95;;;;;;;10.53;61.25;101168.33;1962718;99;25923;-78
2021/12/17 06:48:25;;;;;;;4.83;2.17;;;;;;;10.54;61.25;101163.61;1959927;100;25770;-77
2021/12/17 07:23:46;;;;;;;;;;;;;;;;;;;;;
2021/12/17 07:35:37;;;;;;;5.95;2.75;;;;;;;10.55;61.31;101187.54;1894869;102;44164;-77
2021/12/17 07:39:12;;;;;;;9.80;2.95;;;;;;;10.54;61.32;101201.00;1895033;103;25817;-76
2021/12/17 07:42:44;;;;;;;6.87;3.35;;;;;;;10.63;63.09;101201.34;1890262;102;25891;-77
2021/12/17 07:46:51;;;;;;;9.55;2.45;;;;;;;10.81;62.47;101207.63;1872444;103;25834;-82
2021/12/17 07:51:05;;;;;;;6.53;2.42;;;;;;;10.80;62.18;101211.08;1843611;103;26072;-86
2021/12/17 07:58:25;;;;;;;7.40;2.80;;;;;;;10.74;61.97;101212.58;1769464;109;25860;-85
2021/12/17 08:05:55;;;;;;;;;;;;;;;;;;;;;
2021/12/17 08:09:28;;;;;;;7.30;2.70;;;;;;;10.70;61.82;101241.58;1752853;110;25943;-81
2021/12/17 08:25:29;;;;;;;;;;;;;;;;;;;;;
2021/12/17 08:32:51;;;;;;;7.58;2.50;;;;;;;10.64;61.43;101260.90;1871937;101;25934;-79
2021/12/17 08:37:19;;;;;;;;;;;;;;;;;;;;;
2021/12/17 08:41:02;;;;;;;7.65;3.05;;;;;;;10.62;61.35;101259.52;1786618;109;25829;-80
2021/12/17 08:48:43;;;;;;;4.25;2.42;;;;;;;10.60;61.24;101274.24;1727333;113;25841;-86
2021/12/17 08:52:38;;;;;;;6.67;2.90;;;;;;;10.59;61.21;101266.34;1731659;112;25966;-81
2021/12/17 09:11:54;;;;;;;5.75;2.45;;;;;;;10.62;61.08;101249.09;1648436;118;25930;-79
2021/12/17 09:15:46;;;;;;;5.90;2.37;;;;;;;10.64;61.05;101229.19;1613457;121;26207;-84
2021/12/17 09:19:37;;;;;;;;;;;;;;;;;;;;;
2021/12/17 09:34:23;;;;;;;5.33;2.20;;;;;;;10.82;60.86;101228.95;1636809;119;25931;-81
2021/12/17 09:38:33;;;;;;;5.33;2.83;;;;;;;10.86;60.80;101233.45;1639981;120;25965;-82
2021/12/17 09:42:13;;;;;;;4.75;2.27;;;;;;;10.90;60.77;101221.44;1670381;118;25913;-84
2021/12/17 09:46:08;;;;;;;10.48;3.47;;;;;;;10.93;60.72;101226.73;1669988;115;25993;-80
2021/12/17 09:50:10;;;;;;;;;;;;;;;;;;;;;
2021/12/17 09:57:35;;;;;;;5.78;2.30;;;;;;;11.03;60.57;101231.44;1733991;111;25926;-84
2021/12/17 10:01:43;;;;;;;5.45;3.02;;;;;;;11.08;60.58;101236.84;1670173;113;26639;-84
2021/12/17 10:09:46;;;;;;;;;;;;;;;;;;;;;
2021/12/17 10:13:27;;;;;;;;;;;;;;;;;;;;;
2021/12/17 10:17:29;;;;;;;5.35;3.12;;;;;;;11.49;60.31;101223.00;1769562;107;26507;-80
2021/12/17 10:21:53;;;;;;;8.55;3.17;;;;;;;11.59;60.16;101227.27;1757219;111;26377;-83
2021/12/17 10:25:24;;;;;;;4.22;2.52;;;;;;;11.71;60.06;101222.88;1816335;105;26764;-79
2021/12/17 10:33:32;;;;;;;9.28;3.40;;;;;;;12.13;59.83;101215.95;1902702;103;25792;-80
2021/12/17 10:37:25;;;;;;;17.35;3.47;;;;;;;12.53;61.38;101216.71;1914090;102;26449;-83
2021/12/17 10:44:34;;;;;;;;;;;;;;;;;;;;;
2021/12/17 10:52:30;;;;;;;12.18;3.42;;;;;;;13.93;61.58;101202.02;2040275;96;25769;-80
2021/12/17 10:56:30;;;;;;;7.12;3.25;;;;;;;14.12;60.72;101201.59;1943349;99;25849;-78
2021/12/17 11:00:16;;;;;;;11.50;3.02;;;;;;;14.12;60.72;101201.59;1978365;93;25945;-85
2021/12/17 11:03:49;;;;;;;6.72;3.08;;;;;;;14.26;61.09;101194.03;2041171;95;25958;-85
2021/12/17 11:07:41;;;;;;;9.80;3.67;;;;;;;14.40;61.17;101189.95;2038800;95;25405;-82
2021/12/17 11:11:33;;;;;;;9.73;3.47;;;;;;;14.66;61.53;101205.39;2007618;97;25844;-85
2021/12/17 11:15:30;;;;;;;10.65;3.70;;;;;;;15.09;61.65;101200.97;2061254;94;25754;-83
2021/12/17 11:19:15;;;;;;;;;;;;;;;15.47;61.44;101185.86;2105492;92;25746;-84
2021/12/17 11:23:03;;;;;;;;;;;;;;;;;;;;;
2021/12/17 11:26:54;;;;;;;10.98;3.60;;;;;;;16.37;60.05;101182.39;1941914;100;25921;-82
2021/12/17 11:30:54;;;;;;;;;;;;;;;;;;;;;
2021/12/17 11:34:30;;;;;;;10.20;2.92;;;;;;;17.19;57.91;101185.08;1901421;102;25745;-82
2021/12/17 11:38:09;;;;;;;6.83;2.98;;;;;;;17.19;56.92;101189.46;1861053;103;26227;-83
2021/12/17 11:42:34;;;;;;;7.83;2.95;;;;;;;17.52;56.13;101189.31;1874880;103;25933;-82
2021/12/17 11:46:35;;;;;;;5.10;2.47;;;;;;;17.37;55.49;101177.75;1883720;101;25798;-83
2021/12/17 11:50:27;;;;;;;7.33;2.58;;;;;;;17.09;54.72;101189.80;1887820;103;25790;-83
2021/12/17 11:54:26;;;;;;;3.85;2.40;;;;;;;16.87;54.44;101192.64;1891668;99;25998;-83
2021/12/17 11:58:10;;;;;;;;;;;;;;;;;;;;;
2021/12/17 12:02:00;;;;;;;7.25;3.22;;;;;;;16.42;53.63;101184.63;1933650;100;26044;-84
2021/12/17 12:06:04;;;;;;;38.83;19.67;;;;;;;15.97;52.95;101190.17;1952230;95;32525;-82
2021/12/17 12:09:57;;;;;;;120.35;57.70;;;;;;;15.68;53.15;101191.92;1974051;99;25767;-79
2021/12/17 12:13:51;;;;;;;85.50;39.88;;;;;;;15.46;54.35;101193.73;1942334;100;25796;-81
2021/12/17 12:17:31;;;;;;;60.73;30.95;;;;;;;15.39;55.00;101183.55;1926353;97;25779;-80
2021/12/17 12:20:58;;;;;;;39.58;18.57;;;;;;;15.28;54.72;101176.77;2014413;97;26003;-75
2021/12/17 12:25:07;;;;;;;38.95;17.27;;;;;;;15.24;56.38;101184.16;2002662;98;25853;-82
2021/12/17 12:28:18;;;;;;;33.55;16.57;;;;;;;15.24;56.58;101178.02;1958512;100;26106;-83
2021/12/17 12:31:57;;;;;;;30.35;15.28;;;;;;;15.07;57.26;101175.98;2017649;97;25808;-82
2021/12/17 12:35:47;;;;;;;25.88;11.50;;;;;;;15.01;57.98;101178.48;2027845;96;25938;-82
2021/12/17 12:43:03;;;;;;;11.73;7.67;;;;;;;14.96;58.38;101170.09;1976902;98;25816;-82
2021/12/17 12:50:46;;;;;;;6.92;4.53;;;;;;;14.76;58.55;101163.16;1969538;97;26221;-82
2021/12/17 12:54:47;;;;;;;;;;;;;;;;;;;;;
2021/12/17 12:58:27;;;;;;;10.40;4.75;;;;;;;14.66;58.19;101155.53;1986005;97;25878;-82
2021/12/17 13:01:58;;;;;;;5.40;3.05;;;;;;;14.51;56.97;101165.70;1879877;103;26117;-82
2021/12/17 13:05:41;;;;;;;6.08;3.02;;;;;;;14.25;55.97;101160.80;1882698;103;25853;-82
2021/12/17 13:09:34;;;;;;;8.40;2.72;;;;;;;14.01;55.54;101181.25;1906098;102;25890;-82
2021/12/17 13:17:41;;;;;;;6.83;3.02;;;;;;;13.57;55.05;101180.67;1858139;104;25959;-83
2021/12/17 13:24:58;;;;;;;5.72;2.72;;;;;;;13.91;58.98;101186.70;1779635;107;25906;-83
2021/12/17 13:28:38;;;;;;;6.25;2.30;;;;;;;14.07;58.53;101163.00;1802548;107;25887;-82
2021/12/17 13:32:19;;;;;;;7.33;2.95;;;;;;;14.07;58.53;101163.00;1809917;107;25823;-81
2021/12/17 13:36:05;;;;;;;;;;;;;;;;;;;;;
2021/12/17 13:39:36;;;;;;;;;;;;;;;;;;;;;
2021/12/17 13:43:07;;;;;;;7.70;2.75;;;;;;;13.59;56.11;101170.22;1869806;104;26076;-84
2021/12/17 13:46:37;;;;;;;11.60;3.92;;;;;;;13.39;55.54;101195.49;1867202;103;25533;-85
2021/12/17 13:50:45;;;;;;;;;;;;;;;;;;;;;
2021/12/17 13:54:09;;;;;;;9.98;3.67;;;;;;;13.45;55.51;101172.50;1848833;105;26540;-75
2021/12/17 13:58:00;;;;;;;11.00;3.45;;;;;;;13.44;55.94;101183.84;1840872;106;32482;-83
2021/12/17 14:01:26;;;;;;;9.63;3.40;;;;;;;13.41;55.36;101186.38;1911454;101;26434;-82
2021/12/17 14:05:26;;;;;;;7.03;3.30;;;;;;;13.32;55.19;101181.78;1950601;100;25796;-81
2021/12/17 14:09:13;;;;;;;8.23;3.40;;;;;;;13.12;55.16;101167.27;1992343;91;25395;-81
2021/12/17 14:13:01;;;;;;;10.03;3.20;;;;;;;12.93;54.58;101169.42;2123640;92;25971;-81
2021/12/17 14:16:41;;;;;;;8.40;3.05;;;;;;;12.73;54.13;101195.05;2124243;92;25789;-82
2021/12/17 14:20:30;;;;;;;7.58;2.72;;;;;;;12.46;54.05;101147.20;2147551;89;25467;-76
2021/12/17 14:24:16;;;;;;;11.93;3.22;;;;;;;12.47;54.30;101182.53;2272087;86;26057;-82
2021/12/17 14:28:03;;;;;;;;;;;;;;;;;;;;;
2021/12/17 14:31:33;;;;;;;6.33;2.80;;;;;;;13.07;55.16;101180.25;2243951;86;26505;-82
2021/12/17 14:35:06;;;;;;;10.70;2.98;;;;;;;12.88;54.69;101185.83;2196226;88;25788;-84
2021/12/17 14:38:53;;;;;;;5.47;2.33;;;;;;;12.86;56.33;101188.81;2207263;87;25759;-82
2021/12/17 14:42:46;;;;;;;9.23;3.25;;;;;;;13.06;56.64;101187.65;2214555;88;25793;-85
2021/12/17 14:46:32;;;;;;;6.03;2.92;;;;;;;13.56;56.79;101189.79;2191696;86;25844;-87
2021/12/17 15:01:33;;;;;;;6.45;3.02;;;;;;;12.91;53.46;101188.11;2134486;91;25775;-81
2021/12/17 15:04:37;;;;;;;6.95;3.58;;;;;;;12.75;53.67;101191.15;2128741;91;25388;-86
2021/12/17 15:08:20;;;;;;;6.08;3.10;;;;;;;12.69;53.59;101196.20;2125440;92;25999;-87
2021/12/17 15:11:42;;;;;;;4.78;2.95;;;;;;;12.61;53.29;101206.46;2124640;91;26405;-82
2021/12/17 15:15:22;;;;;;;13.32;3.85;;;;;;;12.50;53.18;101199.62;2116525;91;25856;-87
2021/12/17 15:18:53;;;;;;;7.90;3.47;;;;;;;12.39;53.09;101197.13;2036550;93;25983;-86
2021/12/17 15:22:18;;;;;;;8.53;3.20;;;;;;;12.26;53.02;101196.30;2187322;88;25954;-84
2021/12/17 15:25:46;;;;;;;9.10;3.08;;;;;;;12.16;52.97;101191.64;2175930;89;31333;-81
2021/12/17 15:29:20;;;;;;;7.80;2.77;;;;;;;12.07;52.92;101197.45;2198609;89;25826;-87
2021/12/17 15:32:49;;;;;;;5.85;2.77;;;;;;;11.95;52.89;101195.80;2214201;89;25763;-83
2021/12/17 15:36:10;;;;;;;20.45;5.28;;;;;;;11.82;53.02;101195.36;2254459;86;26007;-82
2021/12/17 15:39:46;;;;;;;7.58;3.72;;;;;;;11.80;54.15;101211.40;2178728;89;30941;-86
2021/12/17 15:43:35;;;;;;;;;;;;;;;;;;;;;
2021/12/17 15:46:51;;;;;;;9.55;3.12;;;;;;;11.75;53.72;101216.03;2185548;87;25860;-82
2021/12/17 15:50:22;;;;;;;6.20;2.58;;;;;;;11.69;53.86;101220.63;2222226;87;25713;-80
2021/12/17 15:53:52;;;;;;;10.40;3.35;;;;;;;11.70;54.34;101200.19;2171453;89;25418;-82
2021/12/17 15:57:35;;;;;;;6.72;3.00;;;;;;;11.70;54.82;101210.64;2268342;86;25976;-83
2021/12/17 16:00:56;;;;;;;5.15;2.52;;;;;;;11.74;55.27;101204.66;2224540;87;26113;-82
2021/12/17 16:04:20;;;;;;;13.58;3.25;;;;;;;11.75;55.60;101205.58;2250972;87;25697;-83
2021/12/17 16:07:48;;;;;;;5.20;2.85;;;;;;;11.76;55.69;101198.20;2235794;84;25886;-83
2021/12/17 16:23:04;;;;;;;8.60;3.12;;;;;;;11.78;56.47;101210.48;2379019;82;25693;-79
2021/12/17 16:26:25;;;;;;;5.30;3.17;;;;;;;11.77;56.46;101207.80;2284338;86;25967;-80
2021/12/17 16:29:57;;;;;;;16.90;4.22;;;;;;;11.75;56.32;101210.38;2300227;85;26454;-80
2021/12/17 16:33:26;;;;;;;7.62;3.58;;;;;;;11.72;56.44;101212.89;2305590;85;25716;-78
2021/12/17 16:36:51;;;;;;;5.42;2.92;;;;;;;11.70;56.37;101218.47;2197501;90;25784;-78
2021/12/17 16:40:19;;;;;;;13.48;4.87;;;;;;;11.67;56.38;101229.25;2266251;85;25995;-80
2021/12/17 16:44:01;;;;;;;8.48;3.50;;;;;;;11.67;56.65;101226.21;2254128;85;25703;-79
2021/12/17 16:47:46;;;;;;;7.83;3.87;;;;;;;11.70;56.93;101234.57;2254324;86;26579;-79
2021/12/17 16:51:12;;;;;;;6.85;3.20;;;;;;;11.72;56.86;101253.81;2263334;85;25737;-80
2021/12/17 16:54:48;;;;;;;4.53;2.27;;;;;;;11.74;56.99;101244.27;2264887;87;25663;-80
2021/12/17 16:58:36;;;;;;;4.40;2.65;;;;;;;11.76;57.12;101253.95;2261820;85;25783;-79
2021/12/17 17:02:06;;;;;;;5.37;3.08;;;;;;;11.77;57.41;101262.24;2265167;85;25715;-78
2021/12/17 17:05:32;;;;;;;5.50;2.27;;;;;;;11.77;57.50;101262.24;2279185;85;26450;-79
2021/12/17 17:09:10;;;;;;;12.82;3.30;;;;;;;11.77;57.45;101250.48;2312362;84;25680;-78
2021/12/17 17:12:44;;;;;;;6.90;2.77;;;;;;;11.79;57.56;101255.36;2296133;85;25650;-80
2021/12/17 17:16:10;;;;;;;;;;;;;;;11.79;57.67;101264.50;2291427;85;25501;-82
2021/12/17 17:19:43;;;;;;;8.28;3.25;;;;;;;11.78;57.68;101265.34;2271093;86;25672;-76
2021/12/17 17:23:20;;;;;;;4.22;2.40;;;;;;;11.75;57.84;101262.63;2264806;87;25516;-76
2021/12/17 17:26:53;;;;;;;5.53;2.27;;;;;;;11.76;57.96;101266.12;2266896;85;25690;-80
2021/12/17 17:30:48;;;;;;;4.37;2.37;;;;;;;11.74;57.97;101267.78;2270185;87;25726;-78
2021/12/17 17:34:32;;;;;;;5.47;2.05;;;;;;;11.72;57.97;101267.75;2258349;86;25944;-77
2021/12/17 17:37:59;;;;;;;4.28;2.35;;;;;;;11.71;57.97;101262.46;2257540;86;25980;-80
2021/12/17 17:41:24;;;;;;;3.50;1.95;;;;;;;11.68;57.95;101267.19;2258709;85;26027;-76
2021/12/17 17:44:49;;;;;;;3.57;2.10;;;;;;;11.65;57.92;101251.41;2299506;84;26469;-82
2021/12/17 17:48:26;;;;;;;5.15;1.70;;;;;;;11.60;57.86;101258.19;2294896;84;30872;-76
2021/12/17 17:51:46;;;;;;;4.22;1.90;;;;;;;11.56;57.71;101267.65;2232026;88;25711;-79
2021/12/17 17:55:28;;;;;;;5.45;1.90;;;;;;;11.50;57.55;101266.55;2293904;85;31472;-82
2021/12/17 17:58:44;;;;;;;2.45;1.92;;;;;;;11.46;57.33;101270.78;2224778;87;25802;-78
2021/12/17 18:02:08;;;;;;;5.05;2.30;;;;;;;11.39;57.07;101271.84;2258427;87;25706;-76
2021/12/17 18:05:47;;;;;;;3.25;2.35;;;;;;;11.31;56.85;101277.69;2204292;87;25723;-79
2021/12/17 18:09:39;;;;;;;7.65;2.50;;;;;;;11.26;56.69;101273.13;2100450;92;25830;-77
2021/12/17 18:13:21;;;;;;;;;;;;;;;;;;;;;
2021/12/17 18:16:50;;;;;;;6.58;2.85;;;;;;;11.14;56.40;101282.73;2119796;91;25827;-75
2021/12/17 18:20:26;;;;;;;6.78;2.52;;;;;;;11.10;56.23;101291.26;2088748;93;25913;-78
2021/12/17 18:24:18;;;;;;;5.30;2.83;;;;;;;11.05;56.14;101300.66;2089110;93;26507;-77
2021/12/17 18:27:52;;;;;;;4.80;1.87;;;;;;;11.01;56.09;101301.39;2089436;89;26482;-76
2021/12/17 18:31:37;;;;;;;4.17;2.55;;;;;;;10.99;55.96;101313.06;2088961;94;25843;-76
2021/12/17 18:35:12;;;;;;;5.67;2.90;;;;;;;10.95;55.84;101316.81;2099203;93;26134;-76
2021/12/17 18:38:53;;;;;;;6.30;2.80;;;;;;;10.92;55.76;101311.06;2104100;93;26026;-76
2021/12/17 18:46:22;;;;;;;4.62;2.77;;;;;;;10.88;55.53;101327.44;2072701;94;25747;-77
2021/12/17 18:50:04;;;;;;;8.80;6.00;;;;;;;10.86;55.43;101330.39;2077913;94;25430;-76
2021/12/17 18:53:36;;;;;;;12.05;8.08;;;;;;;10.85;55.58;101317.77;2074853;93;26535;-78
2021/12/17 19:00:52;;;;;;;52.35;38.78;;;;;;;11.13;62.96;101336.16;1913510;102;26538;-76
2021/12/17 19:04:15;;;;;;;40.15;27.58;;;;;;;11.97;63.62;101348.28;1949448;97;26611;-74
2021/12/17 19:07:43;;;;;;;33.38;21.57;;;;;;;12.21;62.19;101340.36;2020500;97;25701;-81
2021/12/17 19:11:04;;;;;;;23.45;17.30;;;;;;;12.15;61.41;101348.91;2026930;96;25931;-76
2021/12/17 19:14:35;;;;;;;16.50;12.95;;;;;;;11.95;59.77;101351.28;2006990;97;31517;-81
2021/12/17 19:18:00;;;;;;;12.75;10.08;;;;;;;11.95;59.77;101351.28;2005016;97;26027;-73
2021/12/17 19:21:34;;;;;;;10.38;7.50;;;;;;;11.87;59.44;101364.06;2033359;96;25775;-74
2021/12/17 19:24:58;;;;;;;12.85;6.70;;;;;;;11.80;58.90;101368.16;2032463;96;25910;-77
2021/12/17 19:28:23;;;;;;;8.70;5.12;;;;;;;11.76;58.52;101379.34;2083152;94;25930;-73
2021/12/17 19:31:44;;;;;;;5.08;4.58;;;;;;;11.70;58.05;101384.35;2140636;90;31048;-79
2021/12/17 19:35:13;;;;;;;7.65;4.00;;;;;;;11.64;57.69;101390.66;2173657;91;25850;-75
2021/12/17 19:39:01;;;;;;;5.08;3.30;;;;;;;11.59;57.43;101383.09;2161552;89;25885;-73
2021/12/17 19:42:24;;;;;;;7.62;3.02;;;;;;;11.53;57.10;101385.06;2221238;86;26082;-84
2021/12/17 19:45:47;;;;;;;3.72;2.77;;;;;;;11.49;56.82;101378.38;2230805;86;25748;-77
2021/12/17 19:52:51;;;;;;;4.67;2.02;;;;;;;11.40;56.42;101377.62;2179116;90;25726;-74
2021/12/17 19:56:25;;;;;;;;;;;;;;;;;;;;;
2021/12/17 20:00:04;;;;;;;5.12;2.45;;;;;;;11.29;55.85;101381.16;2289052;86;25768;-77
2021/12/17 20:03:41;;;;;;;5.13;2.43;;;;;;;11.25;55.66;101374.05;2300505;84;25750;-82
2021/12/17 20:07:19;;;;;;;3.33;1.50;;;;;;;11.21;55.44;101372.16;2260932;86;25812;-76
2021/12/17 20:11:22;;;;;;;2.97;2.13;;;;;;;11.16;55.27;101372.81;2205246;87;26523;-88
2021/12/17 20:15:09;;;;;;;4.08;2.12;;;;;;;11.09;55.03;101377.80;2301535;84;26340;-80
2021/12/17 20:18:53;;;;;;;5.45;1.82;;;;;;;11.01;54.87;101387.08;2306477;84;25720;-83
2021/12/17 20:22:48;;;;;;;4.70;2.12;;;;;;;10.95;54.74;101397.70;2304462;85;26574;-80
2021/12/17 20:26:25;;;;;;;7.62;2.12;;;;;;;10.91;54.85;101413.65;2121682;91;25950;-85
2021/12/17 20:33:58;;;;;;;2.70;2.00;;;;;;;10.90;55.21;101410.58;1807140;108;25869;-85
2021/12/17 20:38:13;;;;;;;2.60;1.77;;;;;;;10.90;55.39;101418.41;1807800;106;25939;-85
2021/12/17 20:42:08;;;;;;;3.87;1.98;;;;;;;10.90;55.51;101407.05;1784302;109;25897;-84
2021/12/17 20:51:27;;;;;;;5.58;2.02;;;;;;;10.90;55.74;101430.53;;;;
2021/12/17 20:55:10;;;;;;;;;;;;;;;;;;;;;
2021/12/17 21:10:09;;;;;;;2.90;1.75;;;;;;;10.84;56.19;101451.66;1737634;112;25943;-81
2021/12/17 21:14:17;;;;;;;2.52;1.57;;;;;;;10.84;56.31;101450.35;1675639;117;25918;-81
2021/12/17 21:17:56;;;;;;;2.70;1.87;;;;;;;10.83;56.41;101453.80;1727082;110;25920;-91
2021/12/17 21:21:59;;;;;;;3.33;1.67;;;;;;;10.85;56.49;101472.11;1803393;109;25994;-83
2021/12/17 21:25:28;;;;;;;3.37;1.55;;;;;;;10.84;56.54;101463.39;1700451;114;26003;-78
2021/12/17 21:29:49;;;;;;;4.35;1.98;;;;;;;10.85;56.58;101466.89;1737167;111;25979;-75
2021/12/17 21:33:53;;;;;;;2.22;1.60;;;;;;;10.85;56.57;101471.69;1871462;101;25946;-73
2021/12/17 21:41:24;;;;;;;5.25;2.08;;;;;;;10.85;56.56;101472.11;1845144;105;25926;-85
2021/12/17 21:45:12;;;;;;;2.95;1.90;;;;;;;10.85;56.57;101483.42;1855636;103;25872;-87
2021/12/17 21:48:50;;;;;;;2.70;1.70;;;;;;;10.85;56.55;101495.58;1916046;102;25875;-81
2021/12/17 21:52:48;;;;;;;3.20;1.67;;;;;;;10.85;56.56;101499.08;1892674;102;26415;-77
2021/12/17 21:56:42;;;;;;;3.20;1.80;;;;;;;10.86;56.57;101501.27;1838903;106;25879;-79
2021/12/17 22:00:37;;;;;;;3.22;1.70;;;;;;;10.86;56.54;101498.66;1833062;106;25919;-76
2021/12/17 22:04:12;;;;;;;3.75;1.70;;;;;;;10.86;56.55;101513.89;1829413;107;25827;-72
2021/12/17 22:07:38;;;;;;;3.40;1.90;;;;;;;10.86;56.53;101515.20;1846563;105;25826;-72
2021/12/17 22:11:02;;;;;;;4.25;1.90;;;;;;;10.86;56.52;101506.48;1842375;105;25832;-78
2021/12/17 22:14:25;;;;;;;4.70;2.08;;;;;;;10.87;56.56;101512.20;1818297;107;25347;-71
2021/12/17 22:17:56;;;;;;;4.37;2.25;;;;;;;10.87;56.53;101513.09;1830358;106;25803;-71
2021/12/17 22:21:27;;;;;;;4.22;1.72;;;;;;;10.87;56.53;101513.09;1866070;103;25929;-73
2021/12/17 22:24:45;;;;;;;3.05;2.42;;;;;;;10.88;56.51;101512.25;1889338;104;26651;-73
2021/12/17 22:28:06;;;;;;;3.77;1.87;;;;;;;10.89;56.52;101511.83;1869373;104;25535;-77
2021/12/17 22:31:27;;;;;;;2.30;1.47;;;;;;;10.90;56.50;101519.23;1884815;104;25793;-76
2021/12/17 22:34:48;;;;;;;2.70;1.60;;;;;;;10.90;56.51;101532.28;1900149;104;29778;-71
2021/12/17 22:38:13;;;;;;;2.95;1.57;;;;;;;10.90;56.50;101524.07;2027613;97;30856;-77
2021/12/17 22:41:41;;;;;;;3.98;1.82;;;;;;;10.92;56.50;101518.90;2039686;97;25758;-72
2021/12/17 22:45:00;;;;;;;4.00;1.87;;;;;;;10.93;56.40;101515.45;2039832;97;25775;-71
2021/12/17 22:48:27;;;;;;;2.62;1.50;;;;;;;10.92;56.34;101506.73;2039920;95;25772;-76
2021/12/17 22:51:48;;;;;;;4.83;1.60;;;;;;;10.92;56.31;101511.95;2165068;89;25793;-75
2021/12/17 22:55:09;;;;;;;4.95;2.27;;;;;;;10.92;56.30;101507.16;2199921;89;25350;-76
2021/12/17 22:58:33;;;;;;;3.17;1.85;;;;;;;10.92;56.29;101522.81;2190536;89;25702;-72
2021/12/17 23:01:56;;;;;;;2.12;1.60;;;;;;;10.93;56.24;101532.41;2259966;87;26462;-73
2021/12/17 23:05:17;;;;;;;4.17;2.33;;;;;;;10.94;56.21;101545.95;2221864;89;25288;-73
2021/12/17 23:12:21;;;;;;;2.72;1.40;;;;;;;10.94;56.20;101550.76;2221553;88;25807;-75
2021/12/17 23:15:42;;;;;;;4.53;1.87;;;;;;;10.93;56.18;101546.77;2223872;87;25668;-78
2021/12/17 23:19:05;;;;;;;3.55;2.02;;;;;;;10.93;56.17;101547.64;2199785;89;30502;-73